Neptune — WCT5064 — position and weather

sailwx.info

Track history (hours):
 
Tides and Currents Weather Stations Pressure Air Temp Water Temp Dewpoint Dewpoint Depression Visibility Wind Speed Wind Dir Waves Ship Positions

Neptune

Owner: Dann Ocean Towing, TAMPA, FL. More information available from US FCC via Universal Licensing System and Coast Guard Vessel Documentation Center.

Last reported at 2017-Sep-16 16:35 UTC. Time now 2017-Sep-19 22:29 UTC.
Position N 34°29' W 076°19'.

Length 27 m; draft 12 m.

Type: Tow > 200 m length. MMSI: 368542000.

Date/timePositionNaut miles runAvg speedWind from/ knotsBaromVisibWave heightAir tempDewpointWater temp
2017-Sep-16 16:35N 34°29' W 076°19'211.1
2017-Sep-16 16:26N 34°30' W 076°18'611.0
2017-Sep-16 15:53N 34°35' W 076°12'710.6
2017-Sep-16 15:11N 34°40' W 076°05'410.4
2017-Sep-16 14:46N 34°42' W 076°01'2710.4
2017-Sep-16 12:12N 34°58' W 075°35'210.7
2017-Sep-16 12:01N 34°60' W 075°33'1010.9
2017-Sep-16 11:04N 35°07' W 075°25'1411.1
2017-Sep-16 09:50N 35°21' W 075°23'5610.6
2017-Sep-16 04:31N 36°16' W 075°39'010.4
2017-Sep-16 04:30N 36°16' W 075°39'14010.2
2017-Sep-15 14:48N 38°32' W 074°56'1710.6
2017-Sep-15 13:10N 38°47' W 074°46'310.3
2017-Sep-15 12:55N 38°49' W 074°44'410.4
2017-Sep-15 12:30N 38°54' W 074°43'610.2
2017-Sep-15 11:54N 38°59' W 074°40'410.1
2017-Sep-15 11:30N 39°03' W 074°37'510.4
2017-Sep-15 11:01N 39°07' W 074°33'510.4
2017-Sep-15 10:30N 39°11' W 074°30'510.4
2017-Sep-15 10:01N 39°16' W 074°26'510.2
2017-Sep-15 09:31N 39°19' W 074°22'510.1
2017-Sep-15 09:00N 39°23' W 074°18'610.2
2017-Sep-15 08:27N 39°28' W 074°14'510.3
2017-Sep-15 08:00N 39°32' W 074°11'510.4
2017-Sep-15 07:30N 39°37' W 074°09'510.3
2017-Sep-15 07:01N 39°42' W 074°06'510.3
2017-Sep-15 06:30N 39°47' W 074°04'510.3
2017-Sep-15 06:00N 39°52' W 074°03'510.3
2017-Sep-15 05:31N 39°57' W 074°02'510.2
2017-Sep-15 04:59N 40°02' W 074°01'2410.1
2017-Sep-15 02:35N 40°26' W 073°56'211.1
2017-Sep-15 02:23N 40°28' W 073°57'410.8
2017-Sep-15 02:00N 40°31' W 074°00'612.2
2017-Sep-15 01:30N 40°37' W 074°03'4 8.7
2017-Sep-15 01:00N 40°39' W 074°08'3 5.1
2017-Sep-15 00:30N 40°38' W 074°12'0 0.0
2017-Sep-15 00:00N 40°38' W 074°12'0 0.0
2017-Sep-14 23:30N 40°38' W 074°12'0 0.0
2017-Sep-14 23:00N 40°38' W 074°12'0 0.0
2017-Sep-14 22:30N 40°38' W 074°12'0 0.0
2017-Sep-14 22:00N 40°38' W 074°12'0 0.7
2017-Sep-14 21:30N 40°39' W 074°11'4 7.5
2017-Sep-14 21:00N 40°39' W 074°07'3 6.2
2017-Sep-14 20:30N 40°40' W 074°03'2 3.2
2017-Sep-14 20:00N 40°40' W 074°01'0 0.0
2017-Sep-14 19:30N 40°40' W 074°01'0 0.0
2017-Sep-14 19:00N 40°40' W 074°01'0 0.0
2017-Sep-14 18:30N 40°40' W 074°01'0 0.0
2017-Sep-14 18:00N 40°40' W 074°01'0 0.0
2017-Sep-14 17:30N 40°40' W 074°01'0 0.0
2017-Sep-14 17:00N 40°40' W 074°01'0 0.0
2017-Sep-14 16:30N 40°40' W 074°01'0 0.0
2017-Sep-14 16:00N 40°40' W 074°01'0 0.0
2017-Sep-14 15:30N 40°40' W 074°01'0 0.0
2017-Sep-14 15:00N 40°40' W 074°01'0 0.0
2017-Sep-14 14:30N 40°40' W 074°01'0 0.0
2017-Sep-14 14:01N 40°40' W 074°01'0 0.0
2017-Sep-14 13:30N 40°40' W 074°01'0 1.0
2017-Sep-14 13:00N 40°40' W 074°01'4 7.5
2017-Sep-14 12:30N 40°39' W 074°06'0 0.2
2017-Sep-14 12:00N 40°39' W 074°06'0 0.0
2017-Sep-14 11:30N 40°39' W 074°06'0 0.0
2017-Sep-14 11:00N 40°39' W 074°06'0 0.0
2017-Sep-14 10:30N 40°39' W 074°06'0 0.0
2017-Sep-14 10:00N 40°39' W 074°06'0 0.0
2017-Sep-14 09:30N 40°39' W 074°06'0 0.0
2017-Sep-14 09:00N 40°39' W 074°06'0 0.0
2017-Sep-14 08:30N 40°39' W 074°06'0 0.0
2017-Sep-14 08:00N 40°39' W 074°06'0 0.0
2017-Sep-14 07:30N 40°39' W 074°06'0 0.0
2017-Sep-14 07:00N 40°39' W 074°06'0 0.0
2017-Sep-14 06:30N 40°39' W 074°06'0 0.0
2017-Sep-14 06:00N 40°39' W 074°06'0 0.0
2017-Sep-14 05:30N 40°39' W 074°06'0 0.0
2017-Sep-14 05:00N 40°39' W 074°06'0 0.0
2017-Sep-14 04:30N 40°39' W 074°06'0 0.0
2017-Sep-14 04:00N 40°39' W 074°06'0 0.0
2017-Sep-14 03:30N 40°39' W 074°06'0 0.0
2017-Sep-14 03:00N 40°39' W 074°06'0 0.0
2017-Sep-14 02:30N 40°39' W 074°06'0 0.0
2017-Sep-14 02:00N 40°39' W 074°06'0 0.0
2017-Sep-14 01:30N 40°39' W 074°06'0 0.0
2017-Sep-14 01:00N 40°39' W 074°06'0 0.0
2017-Sep-14 00:30N 40°39' W 074°06'0 0.0
2017-Sep-14 00:00N 40°39' W 074°06'0 0.0
2017-Sep-13 23:30N 40°39' W 074°06'0 0.0
2017-Sep-13 23:00N 40°39' W 074°06'0 0.0
2017-Sep-13 22:30N 40°39' W 074°06'0 0.0
2017-Sep-13 22:00N 40°39' W 074°06'0 0.0
2017-Sep-13 21:30N 40°39' W 074°06'0 0.0
2017-Sep-13 21:00N 40°39' W 074°06'0 0.0
2017-Sep-13 20:30N 40°39' W 074°06'0 0.0
2017-Sep-13 20:00N 40°39' W 074°06'0 0.0
2017-Sep-13 19:30N 40°39' W 074°06'0 0.0
2017-Sep-13 19:00N 40°39' W 074°06'0 0.0
2017-Sep-13 18:30N 40°39' W 074°06'0 0.0
2017-Sep-13 18:00N 40°39' W 074°06'0 0.0
2017-Sep-13 17:30N 40°39' W 074°06'0 0.0
2017-Sep-13 17:00N 40°39' W 074°06'0 0.0
2017-Sep-13 16:30N 40°39' W 074°06'0 0.0
2017-Sep-13 15:59N 40°39' W 074°06'0 0.0
2017-Sep-13 15:30N 40°39' W 074°06'0 0.0
2017-Sep-13 15:00N 40°39' W 074°06'0 0.0
2017-Sep-13 14:30N 40°39' W 074°06'0 0.0
2017-Sep-13 14:00N 40°39' W 074°06'0 0.0
2017-Sep-13 13:30N 40°39' W 074°06'0 0.0
2017-Sep-13 13:00N 40°39' W 074°06'0 0.0
2017-Sep-13 12:30N 40°39' W 074°06'0 0.0
2017-Sep-13 12:00N 40°39' W 074°06'0 0.0
2017-Sep-13 11:30N 40°39' W 074°06'3 6.3
2017-Sep-13 11:00N 40°39' W 074°10'3 6.5
2017-Sep-13 10:30N 40°36' W 074°12'1 2.0
2017-Sep-13 10:00N 40°35' W 074°13'0 0.0
2017-Sep-13 09:30N 40°35' W 074°13'1 2.1
2017-Sep-13 09:00N 40°36' W 074°12'3 5.3
2017-Sep-13 08:30N 40°39' W 074°11'4 7.3
2017-Sep-13 08:00N 40°39' W 074°07'1 1.4
2017-Sep-13 07:30N 40°39' W 074°06'0 0.0
2017-Sep-13 07:00N 40°39' W 074°06'0 0.0
2017-Sep-13 06:30N 40°39' W 074°06'0 0.0
2017-Sep-13 06:00N 40°39' W 074°06'0 0.0
2017-Sep-13 05:30N 40°39' W 074°06'0 0.0
2017-Sep-13 05:00N 40°39' W 074°06'0 0.0
2017-Sep-13 04:30N 40°39' W 074°06'0 0.0
2017-Sep-13 04:00N 40°39' W 074°06'0 0.1
2017-Sep-13 03:30N 40°39' W 074°06'4 8.0
2017-Sep-13 03:01N 40°40' W 074°01'0 0.1
2017-Sep-13 02:30N 40°40' W 074°01'0 0.0
2017-Sep-13 02:00N 40°40' W 074°01'0 0.0
2017-Sep-13 01:30N 40°40' W 074°01'0 0.0
2017-Sep-13 01:00N 40°40' W 074°01'0 0.0
2017-Sep-13 00:30N 40°40' W 074°01'0 0.0
2017-Sep-13 00:00N 40°40' W 074°01'0 0.0
2017-Sep-12 23:30N 40°40' W 074°01'0 0.0
2017-Sep-12 23:00N 40°40' W 074°01'0 0.0
2017-Sep-12 22:30N 40°40' W 074°01'0 0.0
2017-Sep-12 22:00N 40°40' W 074°01'0 0.0
2017-Sep-12 21:31N 40°40' W 074°01'0 0.0
2017-Sep-12 21:00N 40°40' W 074°01'2 4.2
2017-Sep-12 20:30N 40°39' W 074°03'2 4.1
2017-Sep-12 20:00N 40°39' W 074°06'0 0.0
2017-Sep-12 19:30N 40°39' W 074°06'0 0.0
2017-Sep-12 19:00N 40°39' W 074°06'0 0.0
2017-Sep-12 18:30N 40°39' W 074°06'0 0.0
2017-Sep-12 18:00N 40°39' W 074°06'0 0.0
2017-Sep-12 17:30N 40°39' W 074°06'0 0.0
2017-Sep-12 17:00N 40°39' W 074°06'0 0.0
2017-Sep-12 16:30N 40°39' W 074°06'0 0.0
2017-Sep-12 16:00N 40°39' W 074°06'0 0.0
2017-Sep-12 15:30N 40°39' W 074°06'0 0.0
2017-Sep-12 15:00N 40°39' W 074°06'0 0.0
2017-Sep-12 14:30N 40°39' W 074°06'0 0.0
2017-Sep-12 14:00N 40°39' W 074°06'0 0.0
2017-Sep-12 13:30N 40°39' W 074°06'0 0.0
2017-Sep-12 13:00N 40°39' W 074°06'0 0.0
2017-Sep-12 12:30N 40°39' W 074°06'0 0.0
2017-Sep-12 12:00N 40°39' W 074°06'0 0.0
2017-Sep-12 11:30N 40°39' W 074°06'0 0.0
2017-Sep-12 11:00N 40°39' W 074°06'0 0.0
2017-Sep-12 10:30N 40°39' W 074°06'0 0.0
2017-Sep-12 10:00N 40°39' W 074°06'0 0.0
2017-Sep-12 09:30N 40°39' W 074°06'0 0.0
2017-Sep-12 09:00N 40°39' W 074°06'0 0.0
2017-Sep-12 08:30N 40°39' W 074°06'0 0.0
2017-Sep-12 08:00N 40°39' W 074°06'0 0.0
2017-Sep-12 07:30N 40°39' W 074°06'0 0.0
2017-Sep-12 07:00N 40°39' W 074°06'0 0.0
2017-Sep-12 06:30N 40°39' W 074°06'0 0.0
2017-Sep-12 06:00N 40°39' W 074°06'0 0.0
2017-Sep-12 05:30N 40°39' W 074°06'0 0.0
2017-Sep-12 05:01N 40°39' W 074°06'0 0.0
2017-Sep-12 04:30N 40°39' W 074°06'0 0.0
2017-Sep-12 04:00N 40°39' W 074°06'0 0.0
2017-Sep-12 03:30N 40°39' W 074°06'0 0.0
2017-Sep-12 03:00N 40°39' W 074°06'0 0.0
2017-Sep-12 02:30N 40°39' W 074°06'0 0.0
2017-Sep-12 02:00N 40°39' W 074°06'0 0.0
2017-Sep-12 01:30N 40°39' W 074°06'0 0.0
2017-Sep-12 01:00N 40°39' W 074°06'0 0.0
2017-Sep-12 00:30N 40°39' W 074°06'0 0.0
2017-Sep-12 00:00N 40°39' W 074°06'0 0.0
2017-Sep-11 23:30N 40°39' W 074°06'0 0.0
2017-Sep-11 23:00N 40°39' W 074°06'0 0.0
2017-Sep-11 22:30N 40°39' W 074°06'0 0.0
2017-Sep-11 22:00N 40°39' W 074°06'0 0.0
2017-Sep-11 21:30N 40°39' W 074°06'0 0.0
2017-Sep-11 21:00N 40°39' W 074°06'0 0.0
2017-Sep-11 20:30N 40°39' W 074°06'0 0.0
2017-Sep-11 20:00N 40°39' W 074°06'0 0.0
2017-Sep-11 19:30N 40°39' W 074°06'2 3.1
2017-Sep-11 19:00N 40°39' W 074°04'510.3
2017-Sep-11 18:30N 40°39' W 074°11'0 0.9
2017-Sep-11 18:00N 40°39' W 074°11'5 9.4
2017-Sep-11 17:31N 40°39' W 074°05'4 7.5
2017-Sep-11 17:00N 40°41' W 074°01'0 0.2
2017-Sep-11 16:30N 40°41' W 074°01'1 1.6
2017-Sep-11 16:00N 40°42' W 074°01'4 7.3
2017-Sep-11 15:30N 40°39' W 074°04'1 2.6
2017-Sep-11 15:00N 40°39' W 074°06'2 3.6
2017-Sep-11 14:30N 40°39' W 074°08'1 2.8
2017-Sep-11 14:00N 40°39' W 074°07'2 3.5
2017-Sep-11 13:30N 40°39' W 074°04'0 0.2
2017-Sep-11 13:01N 40°39' W 074°04'0 0.7
2017-Sep-11 12:30N 40°38' W 074°04'1 1.5
2017-Sep-11 12:00N 40°37' W 074°04'2 3.5
2017-Sep-11 11:30N 40°36' W 074°03'1 2.5
2017-Sep-11 11:00N 40°35' W 074°02'2 3.4
2017-Sep-11 10:30N 40°33' W 074°02'2 4.5
2017-Sep-11 09:59N 40°31' W 074°00'2 4.5
2017-Sep-11 09:30N 40°30' W 073°57'2 3.4
2017-Sep-11 09:00N 40°29' W 073°56'2 4.0
2017-Sep-11 08:30N 40°27' W 073°54'30 6.1
2017-Sep-11 03:31N 39°57' W 073°59'1 7.1
2017-Sep-11 03:24N 39°57' W 073°59'3 7.0
2017-Sep-11 03:00N 39°54' W 074°00'4 7.1
2017-Sep-11 02:30N 39°51' W 074°01'4 7.3
2017-Sep-11 02:00N 39°47' W 074°02'4 7.5
2017-Sep-11 01:30N 39°43' W 074°03'4 7.5
2017-Sep-11 01:00N 39°40' W 074°05'4 7.4
2017-Sep-11 00:30N 39°37' W 074°08'4 7.3
2017-Sep-11 00:00N 39°34' W 074°10'4 7.2
2017-Sep-10 23:30N 39°30' W 074°12'175 6.1
2017-Sep-09 19:00N 36°56' W 075°58'4 7.5
2017-Sep-09 18:30N 36°57' W 076°02'4 6.9
2017-Sep-09 17:59N 36°58' W 076°06'11 4.2
2017-Sep-09 15:14N 36°55' W 076°20'1 4.3
2017-Sep-09 14:59N 36°54' W 076°20'2 4.1
2017-Sep-09 14:30N 36°52' W 076°20'2 4.3
2017-Sep-09 14:00N 36°51' W 076°18'1 2.6
2017-Sep-09 13:30N 36°50' W 076°17'0 0.0
2017-Sep-09 13:00N 36°50' W 076°17'0 0.1
2017-Sep-09 12:30N 36°50' W 076°17'0 0.0
2017-Sep-09 12:00N 36°50' W 076°17'0 0.0
2017-Sep-09 11:30N 36°50' W 076°17'0 0.1
2017-Sep-09 11:00N 36°50' W 076°17'0 0.0
2017-Sep-09 10:24N 36°50' W 076°17'0 0.0
2017-Sep-09 10:00N 36°50' W 076°17'0 0.0
2017-Sep-09 09:30N 36°50' W 076°17'0 0.0
2017-Sep-09 08:51N 36°50' W 076°17'0 0.0
2017-Sep-09 08:30N 36°50' W 076°17'0 0.0
2017-Sep-09 08:00N 36°50' W 076°17'0 0.0
2017-Sep-09 07:30N 36°50' W 076°17'0 0.0
2017-Sep-09 07:00N 36°50' W 076°17'0 0.0
2017-Sep-09 06:30N 36°50' W 076°17'0 0.0
2017-Sep-08 22:38N 36°50' W 076°17'0 0.0
2017-Sep-08 22:29N 36°50' W 076°17'0 0.0
2017-Sep-08 22:00N 36°50' W 076°17'0 0.0
2017-Sep-08 21:30N 36°50' W 076°17'0 0.0
2017-Sep-08 21:00N 36°50' W 076°17'0 0.0
2017-Sep-08 20:30N 36°50' W 076°17'0 0.1
2017-Sep-08 20:00N 36°50' W 076°17'0 0.0
2017-Sep-08 19:30N 36°50' W 076°17'0 0.0
2017-Sep-08 19:00N 36°50' W 076°17'0 0.0
2017-Sep-08 18:29N 36°50' W 076°17'0 0.0
2017-Sep-08 18:00N 36°50' W 076°17'0 0.0
2017-Sep-08 17:30N 36°50' W 076°17'0 0.0
2017-Sep-08 17:00N 36°50' W 076°17'0 0.0
2017-Sep-08 16:30N 36°50' W 076°17'0 0.0
2017-Sep-08 16:00N 36°50' W 076°17'0 0.0
2017-Sep-08 15:30N 36°50' W 076°17'0 0.2
2017-Sep-08 15:00N 36°50' W 076°17'0 0.0
2017-Sep-08 14:30N 36°50' W 076°17'0 0.0
2017-Sep-08 14:00N 36°50' W 076°17'0 0.0
2017-Sep-08 13:30N 36°50' W 076°17'0 0.0
2017-Sep-08 13:00N 36°50' W 076°17'0 0.0
2017-Sep-08 12:30N 36°50' W 076°17'0 0.0
2017-Sep-08 12:00N 36°50' W 076°17'0 0.0
2017-Sep-08 11:30N 36°50' W 076°17'0 0.1
2017-Sep-08 11:00N 36°50' W 076°17'0 0.2
2017-Sep-08 10:30N 36°50' W 076°17'0 0.0
2017-Sep-08 10:00N 36°50' W 076°17'0 0.0
2017-Sep-08 09:30N 36°50' W 076°17'0 0.0
2017-Sep-08 09:00N 36°50' W 076°17'0 0.0
2017-Sep-08 08:30N 36°50' W 076°17'0 0.0
2017-Sep-08 08:00N 36°50' W 076°17'0 0.0
2017-Sep-08 07:30N 36°50' W 076°17'0 0.4
2017-Sep-08 07:00N 36°50' W 076°17'4 7.5
2017-Sep-08 06:30N 36°53' W 076°20'117 9.3
2017-Sep-07 17:56N 38°50' W 076°26'510.6
2017-Sep-07 17:30N 38°54' W 076°25'610.9
2017-Sep-07 16:58N 38°60' W 076°23'510.5
2017-Sep-07 16:27N 39°05' W 076°24'510.2
2017-Sep-07 16:00N 39°09' W 076°25'5 9.9
2017-Sep-07 15:30N 39°12' W 076°30'3 6.9
2017-Sep-07 15:00N 39°12' W 076°35'1 1.6
2017-Sep-07 14:30N 39°12' W 076°35'0 0.5
2017-Sep-07 14:01N 39°12' W 076°35'1 1.4
2017-Sep-07 13:30N 39°13' W 076°35'1 1.3
2017-Sep-07 13:01N 39°13' W 076°34'2 3.1
2017-Sep-07 12:30N 39°14' W 076°32'0 0.4
2017-Sep-07 12:00N 39°13' W 076°33'2 3.6
2017-Sep-07 11:30N 39°12' W 076°31'2 4.7
2017-Sep-07 11:00N 39°11' W 076°28'2 4.6
2017-Sep-07 10:30N 39°10' W 076°25'2 3.9
2017-Sep-07 10:00N 39°10' W 076°23'2 3.5
2017-Sep-07 09:30N 39°09' W 076°21'2 3.4
2017-Sep-07 09:00N 39°07' W 076°20'0 0.6
2017-Sep-07 08:30N 39°07' W 076°20'2 3.5
2017-Sep-07 08:00N 39°09' W 076°20'2 3.8
2017-Sep-07 07:30N 39°10' W 076°18'3 5.5
2017-Sep-07 07:00N 39°12' W 076°16'3 6.4
2017-Sep-07 06:31N 39°15' W 076°14'3 6.9
2017-Sep-07 06:01N 39°18' W 076°13'4 7.2
2017-Sep-07 05:31N 39°21' W 076°10'3 6.9
2017-Sep-07 05:00N 39°23' W 076°06'3 6.4
2017-Sep-07 04:31N 39°24' W 076°03'3 6.6
2017-Sep-07 04:01N 39°27' W 075°60'3 6.8
2017-Sep-07 03:30N 39°29' W 075°57'3 6.5
2017-Sep-07 03:00N 39°31' W 075°53'3 6.3
2017-Sep-07 02:31N 39°32' W 075°49'3 6.0
2017-Sep-07 02:01N 39°32' W 075°45'3 5.8
2017-Sep-07 01:31N 39°33' W 075°42'3 5.3
2017-Sep-07 01:01N 39°33' W 075°38'3 5.2
2017-Sep-07 00:31N 39°33' W 075°35'2 4.3
2017-Sep-07 00:01N 39°33' W 075°32'3 5.4
2017-Sep-06 23:31N 39°30' W 075°33'2 4.0
2017-Sep-06 23:01N 39°28' W 075°34'3 6.1
2017-Sep-06 22:31N 39°25' W 075°32'3 5.4
2017-Sep-06 22:01N 39°23' W 075°29'2 4.2
2017-Sep-06 21:30N 39°22' W 075°27'2 5.0
2017-Sep-06 21:01N 39°20' W 075°25'3 5.1
2017-Sep-06 20:31N 39°18' W 075°23'3 5.2
2017-Sep-06 20:00N 39°16' W 075°21'2 4.9
2017-Sep-06 19:31N 39°14' W 075°19'2 4.9
2017-Sep-06 19:01N 39°12' W 075°17'3 5.3
2017-Sep-06 18:31N 39°10' W 075°15'3 5.9
2017-Sep-06 18:01N 39°08' W 075°13'3 5.9
2017-Sep-06 17:31N 39°05' W 075°11'3 6.1
2017-Sep-06 17:00N 39°02' W 075°10'  
Track history (hours):
 
Tides and Currents Weather Stations Pressure Air Temp Water Temp Dewpoint Dewpoint Depression Visibility Wind Speed Wind Dir Waves Ship Positions

Neptune

Owner: Dann Ocean Towing, TAMPA, FL. More information available from US FCC via Universal Licensing System and Coast Guard Vessel Documentation Center.

Last reported at 2017-Sep-16 16:35 UTC. Time now 2017-Sep-19 22:29 UTC.
Position N 34°29' W 076°19'.

Length 27 m; draft 12 m.

Type: Tow > 200 m length. MMSI: 368542000.

Date/timePositionNaut miles runAvg speedWind from/ knotsBaromVisibWave heightAir tempDewpointWater temp
2017-Sep-16 16:35N 34°29' W 076°19'211.1
2017-Sep-16 16:26N 34°30' W 076°18'611.0
2017-Sep-16 15:53N 34°35' W 076°12'710.6
2017-Sep-16 15:11N 34°40' W 076°05'410.4
2017-Sep-16 14:46N 34°42' W 076°01'2710.4
2017-Sep-16 12:12N 34°58' W 075°35'210.7
2017-Sep-16 12:01N 34°60' W 075°33'1010.9
2017-Sep-16 11:04N 35°07' W 075°25'1411.1
2017-Sep-16 09:50N 35°21' W 075°23'5610.6
2017-Sep-16 04:31N 36°16' W 075°39'010.4
2017-Sep-16 04:30N 36°16' W 075°39'14010.2
2017-Sep-15 14:48N 38°32' W 074°56'1710.6
2017-Sep-15 13:10N 38°47' W 074°46'310.3
2017-Sep-15 12:55N 38°49' W 074°44'410.4
2017-Sep-15 12:30N 38°54' W 074°43'610.2
2017-Sep-15 11:54N 38°59' W 074°40'410.1
2017-Sep-15 11:30N 39°03' W 074°37'510.4
2017-Sep-15 11:01N 39°07' W 074°33'510.4
2017-Sep-15 10:30N 39°11' W 074°30'510.4
2017-Sep-15 10:01N 39°16' W 074°26'510.2
2017-Sep-15 09:31N 39°19' W 074°22'510.1
2017-Sep-15 09:00N 39°23' W 074°18'610.2
2017-Sep-15 08:27N 39°28' W 074°14'510.3
2017-Sep-15 08:00N 39°32' W 074°11'510.4
2017-Sep-15 07:30N 39°37' W 074°09'510.3
2017-Sep-15 07:01N 39°42' W 074°06'510.3
2017-Sep-15 06:30N 39°47' W 074°04'510.3
2017-Sep-15 06:00N 39°52' W 074°03'510.3
2017-Sep-15 05:31N 39°57' W 074°02'510.2
2017-Sep-15 04:59N 40°02' W 074°01'2410.1
2017-Sep-15 02:35N 40°26' W 073°56'211.1
2017-Sep-15 02:23N 40°28' W 073°57'410.8
2017-Sep-15 02:00N 40°31' W 074°00'612.2
2017-Sep-15 01:30N 40°37' W 074°03'4 8.7
2017-Sep-15 01:00N 40°39' W 074°08'3 5.1
2017-Sep-15 00:30N 40°38' W 074°12'0 0.0
2017-Sep-15 00:00N 40°38' W 074°12'0 0.0
2017-Sep-14 23:30N 40°38' W 074°12'0 0.0
2017-Sep-14 23:00N 40°38' W 074°12'0 0.0
2017-Sep-14 22:30N 40°38' W 074°12'0 0.0
2017-Sep-14 22:00N 40°38' W 074°12'0 0.7
2017-Sep-14 21:30N 40°39' W 074°11'4 7.5
2017-Sep-14 21:00N 40°39' W 074°07'3 6.2
2017-Sep-14 20:30N 40°40' W 074°03'2 3.2
2017-Sep-14 20:00N 40°40' W 074°01'0 0.0
2017-Sep-14 19:30N 40°40' W 074°01'0 0.0
2017-Sep-14 19:00N 40°40' W 074°01'0 0.0
2017-Sep-14 18:30N 40°40' W 074°01'0 0.0
2017-Sep-14 18:00N 40°40' W 074°01'0 0.0
2017-Sep-14 17:30N 40°40' W 074°01'0 0.0
2017-Sep-14 17:00N 40°40' W 074°01'0 0.0
2017-Sep-14 16:30N 40°40' W 074°01'0 0.0
2017-Sep-14 16:00N 40°40' W 074°01'0 0.0
2017-Sep-14 15:30N 40°40' W 074°01'0 0.0
2017-Sep-14 15:00N 40°40' W 074°01'0 0.0
2017-Sep-14 14:30N 40°40' W 074°01'0 0.0
2017-Sep-14 14:01N 40°40' W 074°01'0 0.0
2017-Sep-14 13:30N 40°40' W 074°01'0 1.0
2017-Sep-14 13:00N 40°40' W 074°01'4 7.5
2017-Sep-14 12:30N 40°39' W 074°06'0 0.2
2017-Sep-14 12:00N 40°39' W 074°06'0 0.0
2017-Sep-14 11:30N 40°39' W 074°06'0 0.0
2017-Sep-14 11:00N 40°39' W 074°06'0 0.0
2017-Sep-14 10:30N 40°39' W 074°06'0 0.0
2017-Sep-14 10:00N 40°39' W 074°06'0 0.0
2017-Sep-14 09:30N 40°39' W 074°06'0 0.0
2017-Sep-14 09:00N 40°39' W 074°06'0 0.0
2017-Sep-14 08:30N 40°39' W 074°06'0 0.0
2017-Sep-14 08:00N 40°39' W 074°06'0 0.0
2017-Sep-14 07:30N 40°39' W 074°06'0 0.0
2017-Sep-14 07:00N 40°39' W 074°06'0 0.0
2017-Sep-14 06:30N 40°39' W 074°06'0 0.0
2017-Sep-14 06:00N 40°39' W 074°06'0 0.0
2017-Sep-14 05:30N 40°39' W 074°06'0 0.0
2017-Sep-14 05:00N 40°39' W 074°06'0 0.0
2017-Sep-14 04:30N 40°39' W 074°06'0 0.0
2017-Sep-14 04:00N 40°39' W 074°06'0 0.0
2017-Sep-14 03:30N 40°39' W 074°06'0 0.0
2017-Sep-14 03:00N 40°39' W 074°06'0 0.0
2017-Sep-14 02:30N 40°39' W 074°06'0 0.0
2017-Sep-14 02:00N 40°39' W 074°06'0 0.0
2017-Sep-14 01:30N 40°39' W 074°06'0 0.0
2017-Sep-14 01:00N 40°39' W 074°06'0 0.0
2017-Sep-14 00:30N 40°39' W 074°06'0 0.0
2017-Sep-14 00:00N 40°39' W 074°06'0 0.0
2017-Sep-13 23:30N 40°39' W 074°06'0 0.0
2017-Sep-13 23:00N 40°39' W 074°06'0 0.0
2017-Sep-13 22:30N 40°39' W 074°06'0 0.0
2017-Sep-13 22:00N 40°39' W 074°06'0 0.0
2017-Sep-13 21:30N 40°39' W 074°06'0 0.0
2017-Sep-13 21:00N 40°39' W 074°06'0 0.0
2017-Sep-13 20:30N 40°39' W 074°06'0 0.0
2017-Sep-13 20:00N 40°39' W 074°06'0 0.0
2017-Sep-13 19:30N 40°39' W 074°06'0 0.0
2017-Sep-13 19:00N 40°39' W 074°06'0 0.0
2017-Sep-13 18:30N 40°39' W 074°06'0 0.0
2017-Sep-13 18:00N 40°39' W 074°06'0 0.0
2017-Sep-13 17:30N 40°39' W 074°06'0 0.0
2017-Sep-13 17:00N 40°39' W 074°06'0 0.0
2017-Sep-13 16:30N 40°39' W 074°06'0 0.0
2017-Sep-13 15:59N 40°39' W 074°06'0 0.0
2017-Sep-13 15:30N 40°39' W 074°06'0 0.0
2017-Sep-13 15:00N 40°39' W 074°06'0 0.0
2017-Sep-13 14:30N 40°39' W 074°06'0 0.0
2017-Sep-13 14:00N 40°39' W 074°06'0 0.0
2017-Sep-13 13:30N 40°39' W 074°06'0 0.0
2017-Sep-13 13:00N 40°39' W 074°06'0 0.0
2017-Sep-13 12:30N 40°39' W 074°06'0 0.0
2017-Sep-13 12:00N 40°39' W 074°06'0 0.0
2017-Sep-13 11:30N 40°39' W 074°06'3 6.3
2017-Sep-13 11:00N 40°39' W 074°10'3 6.5
2017-Sep-13 10:30N 40°36' W 074°12'1 2.0
2017-Sep-13 10:00N 40°35' W 074°13'0 0.0
2017-Sep-13 09:30N 40°35' W 074°13'1 2.1
2017-Sep-13 09:00N 40°36' W 074°12'3 5.3
2017-Sep-13 08:30N 40°39' W 074°11'4 7.3
2017-Sep-13 08:00N 40°39' W 074°07'1 1.4
2017-Sep-13 07:30N 40°39' W 074°06'0 0.0
2017-Sep-13 07:00N 40°39' W 074°06'0 0.0
2017-Sep-13 06:30N 40°39' W 074°06'0 0.0
2017-Sep-13 06:00N 40°39' W 074°06'0 0.0
2017-Sep-13 05:30N 40°39' W 074°06'0 0.0
2017-Sep-13 05:00N 40°39' W 074°06'0 0.0
2017-Sep-13 04:30N 40°39' W 074°06'0 0.0
2017-Sep-13 04:00N 40°39' W 074°06'0 0.1
2017-Sep-13 03:30N 40°39' W 074°06'4 8.0
2017-Sep-13 03:01N 40°40' W 074°01'0 0.1
2017-Sep-13 02:30N 40°40' W 074°01'0 0.0
2017-Sep-13 02:00N 40°40' W 074°01'0 0.0
2017-Sep-13 01:30N 40°40' W 074°01'0 0.0
2017-Sep-13 01:00N 40°40' W 074°01'0 0.0
2017-Sep-13 00:30N 40°40' W 074°01'0 0.0
2017-Sep-13 00:00N 40°40' W 074°01'0 0.0
2017-Sep-12 23:30N 40°40' W 074°01'0 0.0
2017-Sep-12 23:00N 40°40' W 074°01'0 0.0
2017-Sep-12 22:30N 40°40' W 074°01'0 0.0
2017-Sep-12 22:00N 40°40' W 074°01'0 0.0
2017-Sep-12 21:31N 40°40' W 074°01'0 0.0
2017-Sep-12 21:00N 40°40' W 074°01'2 4.2
2017-Sep-12 20:30N 40°39' W 074°03'2 4.1
2017-Sep-12 20:00N 40°39' W 074°06'0 0.0
2017-Sep-12 19:30N 40°39' W 074°06'0 0.0
2017-Sep-12 19:00N 40°39' W 074°06'0 0.0
2017-Sep-12 18:30N 40°39' W 074°06'0 0.0
2017-Sep-12 18:00N 40°39' W 074°06'0 0.0
2017-Sep-12 17:30N 40°39' W 074°06'0 0.0
2017-Sep-12 17:00N 40°39' W 074°06'0 0.0
2017-Sep-12 16:30N 40°39' W 074°06'0 0.0
2017-Sep-12 16:00N 40°39' W 074°06'0 0.0
2017-Sep-12 15:30N 40°39' W 074°06'0 0.0
2017-Sep-12 15:00N 40°39' W 074°06'0 0.0
2017-Sep-12 14:30N 40°39' W 074°06'0 0.0
2017-Sep-12 14:00N 40°39' W 074°06'0 0.0
2017-Sep-12 13:30N 40°39' W 074°06'0 0.0
2017-Sep-12 13:00N 40°39' W 074°06'0 0.0
2017-Sep-12 12:30N 40°39' W 074°06'0 0.0
2017-Sep-12 12:00N 40°39' W 074°06'0 0.0
2017-Sep-12 11:30N 40°39' W 074°06'0 0.0
2017-Sep-12 11:00N 40°39' W 074°06'0 0.0
2017-Sep-12 10:30N 40°39' W 074°06'0 0.0
2017-Sep-12 10:00N 40°39' W 074°06'0 0.0
2017-Sep-12 09:30N 40°39' W 074°06'0 0.0
2017-Sep-12 09:00N 40°39' W 074°06'0 0.0
2017-Sep-12 08:30N 40°39' W 074°06'0 0.0
2017-Sep-12 08:00N 40°39' W 074°06'0 0.0
2017-Sep-12 07:30N 40°39' W 074°06'0 0.0
2017-Sep-12 07:00N 40°39' W 074°06'0 0.0
2017-Sep-12 06:30N 40°39' W 074°06'0 0.0
2017-Sep-12 06:00N 40°39' W 074°06'0 0.0
2017-Sep-12 05:30N 40°39' W 074°06'0 0.0
2017-Sep-12 05:01N 40°39' W 074°06'0 0.0
2017-Sep-12 04:30N 40°39' W 074°06'0 0.0
2017-Sep-12 04:00N 40°39' W 074°06'0 0.0
2017-Sep-12 03:30N 40°39' W 074°06'0 0.0
2017-Sep-12 03:00N 40°39' W 074°06'0 0.0
2017-Sep-12 02:30N 40°39' W 074°06'0 0.0
2017-Sep-12 02:00N 40°39' W 074°06'0 0.0
2017-Sep-12 01:30N 40°39' W 074°06'0 0.0
2017-Sep-12 01:00N 40°39' W 074°06'0 0.0
2017-Sep-12 00:30N 40°39' W 074°06'0 0.0
2017-Sep-12 00:00N 40°39' W 074°06'0 0.0
2017-Sep-11 23:30N 40°39' W 074°06'0 0.0
2017-Sep-11 23:00N 40°39' W 074°06'0 0.0
2017-Sep-11 22:30N 40°39' W 074°06'0 0.0
2017-Sep-11 22:00N 40°39' W 074°06'0 0.0
2017-Sep-11 21:30N 40°39' W 074°06'0 0.0
2017-Sep-11 21:00N 40°39' W 074°06'0 0.0
2017-Sep-11 20:30N 40°39' W 074°06'0 0.0
2017-Sep-11 20:00N 40°39' W 074°06'0 0.0
2017-Sep-11 19:30N 40°39' W 074°06'2 3.1
2017-Sep-11 19:00N 40°39' W 074°04'510.3
2017-Sep-11 18:30N 40°39' W 074°11'0 0.9
2017-Sep-11 18:00N 40°39' W 074°11'5 9.4
2017-Sep-11 17:31N 40°39' W 074°05'4 7.5
2017-Sep-11 17:00N 40°41' W 074°01'0 0.2
2017-Sep-11 16:30N 40°41' W 074°01'1 1.6
2017-Sep-11 16:00N 40°42' W 074°01'4 7.3
2017-Sep-11 15:30N 40°39' W 074°04'1 2.6
2017-Sep-11 15:00N 40°39' W 074°06'2 3.6
2017-Sep-11 14:30N 40°39' W 074°08'1 2.8
2017-Sep-11 14:00N 40°39' W 074°07'2 3.5
2017-Sep-11 13:30N 40°39' W 074°04'0 0.2
2017-Sep-11 13:01N 40°39' W 074°04'0 0.7
2017-Sep-11 12:30N 40°38' W 074°04'1 1.5
2017-Sep-11 12:00N 40°37' W 074°04'2 3.5
2017-Sep-11 11:30N 40°36' W 074°03'1 2.5
2017-Sep-11 11:00N 40°35' W 074°02'2 3.4
2017-Sep-11 10:30N 40°33' W 074°02'2 4.5
2017-Sep-11 09:59N 40°31' W 074°00'2 4.5
2017-Sep-11 09:30N 40°30' W 073°57'2 3.4
2017-Sep-11 09:00N 40°29' W 073°56'2 4.0
2017-Sep-11 08:30N 40°27' W 073°54'30 6.1
2017-Sep-11 03:31N 39°57' W 073°59'1 7.1
2017-Sep-11 03:24N 39°57' W 073°59'3 7.0
2017-Sep-11 03:00N 39°54' W 074°00'4 7.1
2017-Sep-11 02:30N 39°51' W 074°01'4 7.3
2017-Sep-11 02:00N 39°47' W 074°02'4 7.5
2017-Sep-11 01:30N 39°43' W 074°03'4 7.5
2017-Sep-11 01:00N 39°40' W 074°05'4 7.4
2017-Sep-11 00:30N 39°37' W 074°08'4 7.3
2017-Sep-11 00:00N 39°34' W 074°10'4 7.2
2017-Sep-10 23:30N 39°30' W 074°12'175 6.1
2017-Sep-09 19:00N 36°56' W 075°58'4 7.5
2017-Sep-09 18:30N 36°57' W 076°02'4 6.9
2017-Sep-09 17:59N 36°58' W 076°06'11 4.2
2017-Sep-09 15:14N 36°55' W 076°20'1 4.3
2017-Sep-09 14:59N 36°54' W 076°20'2 4.1
2017-Sep-09 14:30N 36°52' W 076°20'2 4.3
2017-Sep-09 14:00N 36°51' W 076°18'1 2.6
2017-Sep-09 13:30N 36°50' W 076°17'0 0.0
2017-Sep-09 13:00N 36°50' W 076°17'0 0.1
2017-Sep-09 12:30N 36°50' W 076°17'0 0.0
2017-Sep-09 12:00N 36°50' W 076°17'0 0.0
2017-Sep-09 11:30N 36°50' W 076°17'0 0.1
2017-Sep-09 11:00N 36°50' W 076°17'0 0.0
2017-Sep-09 10:24N 36°50' W 076°17'0 0.0
2017-Sep-09 10:00N 36°50' W 076°17'0 0.0
2017-Sep-09 09:30N 36°50' W 076°17'0 0.0
2017-Sep-09 08:51N 36°50' W 076°17'0 0.0
2017-Sep-09 08:30N 36°50' W 076°17'0 0.0
2017-Sep-09 08:00N 36°50' W 076°17'0 0.0
2017-Sep-09 07:30N 36°50' W 076°17'0 0.0
2017-Sep-09 07:00N 36°50' W 076°17'0 0.0
2017-Sep-09 06:30N 36°50' W 076°17'0 0.0
2017-Sep-08 22:38N 36°50' W 076°17'0 0.0
2017-Sep-08 22:29N 36°50' W 076°17'0 0.0
2017-Sep-08 22:00N 36°50' W 076°17'0 0.0
2017-Sep-08 21:30N 36°50' W 076°17'0 0.0
2017-Sep-08 21:00N 36°50' W 076°17'0 0.0
2017-Sep-08 20:30N 36°50' W 076°17'0 0.1
2017-Sep-08 20:00N 36°50' W 076°17'0 0.0
2017-Sep-08 19:30N 36°50' W 076°17'0 0.0
2017-Sep-08 19:00N 36°50' W 076°17'0 0.0
2017-Sep-08 18:29N 36°50' W 076°17'0 0.0
2017-Sep-08 18:00N 36°50' W 076°17'0 0.0
2017-Sep-08 17:30N 36°50' W 076°17'0 0.0
2017-Sep-08 17:00N 36°50' W 076°17'0 0.0
2017-Sep-08 16:30N 36°50' W 076°17'0 0.0
2017-Sep-08 16:00N 36°50' W 076°17'0 0.0
2017-Sep-08 15:30N 36°50' W 076°17'0 0.2
2017-Sep-08 15:00N 36°50' W 076°17'0 0.0
2017-Sep-08 14:30N 36°50' W 076°17'0 0.0
2017-Sep-08 14:00N 36°50' W 076°17'0 0.0
2017-Sep-08 13:30N 36°50' W 076°17'0 0.0
2017-Sep-08 13:00N 36°50' W 076°17'0 0.0
2017-Sep-08 12:30N 36°50' W 076°17'0 0.0
2017-Sep-08 12:00N 36°50' W 076°17'0 0.0
2017-Sep-08 11:30N 36°50' W 076°17'0 0.1
2017-Sep-08 11:00N 36°50' W 076°17'0 0.2
2017-Sep-08 10:30N 36°50' W 076°17'0 0.0
2017-Sep-08 10:00N 36°50' W 076°17'0 0.0
2017-Sep-08 09:30N 36°50' W 076°17'0 0.0
2017-Sep-08 09:00N 36°50' W 076°17'0 0.0
2017-Sep-08 08:30N 36°50' W 076°17'0 0.0
2017-Sep-08 08:00N 36°50' W 076°17'0 0.0
2017-Sep-08 07:30N 36°50' W 076°17'0 0.4
2017-Sep-08 07:00N 36°50' W 076°17'4 7.5
2017-Sep-08 06:30N 36°53' W 076°20'117 9.3
2017-Sep-07 17:56N 38°50' W 076°26'510.6
2017-Sep-07 17:30N 38°54' W 076°25'610.9
2017-Sep-07 16:58N 38°60' W 076°23'510.5
2017-Sep-07 16:27N 39°05' W 076°24'510.2
2017-Sep-07 16:00N 39°09' W 076°25'5 9.9
2017-Sep-07 15:30N 39°12' W 076°30'3 6.9
2017-Sep-07 15:00N 39°12' W 076°35'1 1.6
2017-Sep-07 14:30N 39°12' W 076°35'0 0.5
2017-Sep-07 14:01N 39°12' W 076°35'1 1.4
2017-Sep-07 13:30N 39°13' W 076°35'1 1.3
2017-Sep-07 13:01N 39°13' W 076°34'2 3.1
2017-Sep-07 12:30N 39°14' W 076°32'0 0.4
2017-Sep-07 12:00N 39°13' W 076°33'2 3.6
2017-Sep-07 11:30N 39°12' W 076°31'2 4.7
2017-Sep-07 11:00N 39°11' W 076°28'2 4.6
2017-Sep-07 10:30N 39°10' W 076°25'2 3.9
2017-Sep-07 10:00N 39°10' W 076°23'2 3.5
2017-Sep-07 09:30N 39°09' W 076°21'2 3.4
2017-Sep-07 09:00N 39°07' W 076°20'0 0.6
2017-Sep-07 08:30N 39°07' W 076°20'2 3.5
2017-Sep-07 08:00N 39°09' W 076°20'2 3.8
2017-Sep-07 07:30N 39°10' W 076°18'3 5.5
2017-Sep-07 07:00N 39°12' W 076°16'3 6.4
2017-Sep-07 06:31N 39°15' W 076°14'3 6.9
2017-Sep-07 06:01N 39°18' W 076°13'4 7.2
2017-Sep-07 05:31N 39°21' W 076°10'3 6.9
2017-Sep-07 05:00N 39°23' W 076°06'3 6.4
2017-Sep-07 04:31N 39°24' W 076°03'3 6.6
2017-Sep-07 04:01N 39°27' W 075°60'3 6.8
2017-Sep-07 03:30N 39°29' W 075°57'3 6.5
2017-Sep-07 03:00N 39°31' W 075°53'3 6.3
2017-Sep-07 02:31N 39°32' W 075°49'3 6.0
2017-Sep-07 02:01N 39°32' W 075°45'3 5.8
2017-Sep-07 01:31N 39°33' W 075°42'3 5.3
2017-Sep-07 01:01N 39°33' W 075°38'3 5.2
2017-Sep-07 00:31N 39°33' W 075°35'2 4.3
2017-Sep-07 00:01N 39°33' W 075°32'3 5.4
2017-Sep-06 23:31N 39°30' W 075°33'2 4.0
2017-Sep-06 23:01N 39°28' W 075°34'3 6.1
2017-Sep-06 22:31N 39°25' W 075°32'3 5.4
2017-Sep-06 22:01N 39°23' W 075°29'2 4.2
2017-Sep-06 21:30N 39°22' W 075°27'2 5.0
2017-Sep-06 21:01N 39°20' W 075°25'3 5.1
2017-Sep-06 20:31N 39°18' W 075°23'3 5.2
2017-Sep-06 20:00N 39°16' W 075°21'2 4.9
2017-Sep-06 19:31N 39°14' W 075°19'2 4.9
2017-Sep-06 19:01N 39°12' W 075°17'3 5.3
2017-Sep-06 18:31N 39°10' W 075°15'3 5.9
2017-Sep-06 18:01N 39°08' W 075°13'3 5.9
2017-Sep-06 17:31N 39°05' W 075°11'3 6.1
2017-Sep-06 17:00N 39°02' W 075°10'  

Dump ship's entire track history